createdAt,value
2018-10-12T00:01:13.060Z,16.11
2018-10-12T00:03:42.969Z,16.14
2018-10-12T00:06:12.450Z,16.26
2018-10-12T00:08:42.093Z,16.18
2018-10-12T00:11:11.542Z,16.14
2018-10-12T00:13:40.989Z,16.10
2018-10-12T00:16:10.671Z,16.54
2018-10-12T00:18:39.882Z,16.54
2018-10-12T00:21:09.372Z,16.44
2018-10-12T00:23:39.078Z,16.33
2018-10-12T00:26:08.498Z,16.28
2018-10-12T00:28:37.696Z,16.17
2018-10-12T00:31:07.096Z,16.01
2018-10-12T00:33:36.820Z,16.20
2018-10-12T00:36:06.349Z,16.00
2018-10-12T00:38:35.616Z,16.24
2018-10-12T00:41:05.143Z,16.09
2018-10-12T00:43:34.747Z,16.11
2018-10-12T00:46:04.207Z,15.83
2018-10-12T00:48:33.635Z,15.93
2018-10-12T00:51:03.209Z,15.81
2018-10-12T00:53:33.082Z,15.98
2018-10-12T00:56:02.536Z,15.67
2018-10-12T00:58:31.847Z,16.14
2018-10-12T01:01:01.286Z,15.71
2018-10-12T01:03:30.480Z,15.68
2018-10-12T01:05:59.815Z,15.61
2018-10-12T01:08:29.484Z,15.62
2018-10-12T01:10:58.919Z,15.53
2018-10-12T01:13:29.076Z,15.76
2018-10-12T01:15:58.383Z,15.65
2018-10-12T01:18:27.848Z,15.19
2018-10-12T01:20:57.299Z,15.01
2018-10-12T01:23:27.539Z,15.07
2018-10-12T01:25:56.840Z,15.37
2018-10-12T01:28:26.457Z,15.31
2018-10-12T01:30:55.928Z,15.35
2018-10-12T01:33:25.308Z,15.52
2018-10-12T01:35:54.868Z,15.71
2018-10-12T01:38:24.456Z,15.16
2018-10-12T01:40:53.992Z,15.33
2018-10-12T01:43:23.524Z,15.46
2018-10-12T01:45:52.975Z,15.45
2018-10-12T01:48:22.564Z,15.24
2018-10-12T01:50:52.064Z,15.17
2018-10-12T01:53:22.028Z,15.29
2018-10-12T01:55:55.644Z,15.14
2018-10-12T01:58:25.023Z,15.08
2018-10-12T02:00:54.649Z,15.73
2018-10-12T02:03:24.316Z,15.40
2018-10-12T02:05:53.624Z,15.35
2018-10-12T02:08:22.928Z,15.19
2018-10-12T02:10:52.358Z,15.29
2018-10-12T02:13:21.876Z,15.11
2018-10-12T02:15:51.270Z,15.32
2018-10-12T02:18:20.564Z,15.17
2018-10-12T02:20:50.059Z,15.01
2018-10-12T02:23:19.722Z,15.34
2018-10-12T02:25:49.069Z,15.26
2018-10-12T02:28:18.382Z,15.16
2018-10-12T02:30:47.722Z,15.54
2018-10-12T02:33:17.200Z,15.32
2018-10-12T02:35:46.507Z,15.26
2018-10-12T02:38:16.094Z,15.36
2018-10-12T02:40:45.401Z,15.37
2018-10-12T02:43:15.132Z,15.62
2018-10-12T02:45:44.809Z,15.46
2018-10-12T02:48:14.307Z,15.65
2018-10-12T02:50:43.605Z,15.99
2018-10-12T02:53:13.760Z,16.11
2018-10-12T02:55:43.047Z,15.75
2018-10-12T02:58:12.612Z,15.76
2018-10-12T03:00:42.125Z,15.69
2018-10-12T03:03:11.504Z,15.54
2018-10-12T03:05:41.181Z,15.82
2018-10-12T03:08:10.714Z,15.70
2018-10-12T03:10:40.117Z,15.90
2018-10-12T03:13:09.524Z,15.68
2018-10-12T03:15:39.214Z,15.83
2018-10-12T03:18:08.572Z,16.00
2018-10-12T03:20:37.987Z,15.73
2018-10-12T03:23:07.322Z,15.92
2018-10-12T03:25:36.818Z,16.01
2018-10-12T03:28:17.123Z,15.86
2018-10-12T03:30:46.720Z,16.05
2018-10-12T03:33:16.289Z,16.05
2018-10-12T03:35:45.908Z,15.43
2018-10-12T03:38:15.903Z,15.92
2018-10-12T03:40:45.627Z,15.76
2018-10-12T03:43:15.096Z,15.92
2018-10-12T03:45:44.738Z,15.78
2018-10-12T03:48:14.094Z,15.74
2018-10-12T03:50:43.496Z,15.50
2018-10-12T03:53:13.433Z,15.48
2018-10-12T03:55:42.916Z,15.60
2018-10-12T03:58:12.278Z,15.43
2018-10-12T04:00:41.862Z,15.59
2018-10-12T04:03:11.725Z,15.66
2018-10-12T04:05:41.273Z,15.39
2018-10-12T04:08:10.737Z,15.35
2018-10-12T04:10:40.084Z,15.47
2018-10-12T04:13:09.896Z,15.18
2018-10-12T04:15:39.596Z,15.18
2018-10-12T04:18:09.176Z,15.12
2018-10-12T04:20:38.749Z,15.28
2018-10-12T04:23:08.412Z,15.51
2018-10-12T04:25:37.895Z,15.24
2018-10-12T04:28:07.318Z,15.10
2018-10-12T04:30:36.717Z,15.01
2018-10-12T04:33:06.093Z,15.16
2018-10-12T04:35:35.430Z,15.04
2018-10-12T04:38:04.764Z,15.01
2018-10-12T04:41:16.510Z,15.05
2018-10-12T04:43:46.844Z,14.91
2018-10-12T04:46:19.690Z,15.01
2018-10-12T04:48:50.685Z,14.81
2018-10-12T04:51:26.872Z,14.78
2018-10-12T04:53:56.981Z,15.05
2018-10-12T04:56:26.684Z,15.19
2018-10-12T04:58:56.250Z,14.77
2018-10-12T05:01:25.608Z,14.88
2018-10-12T05:03:55.030Z,14.86
2018-10-12T05:06:24.615Z,14.99
2018-10-12T05:08:54.353Z,15.19
2018-10-12T05:11:23.835Z,15.23
2018-10-12T05:13:53.222Z,15.05
2018-10-12T05:16:22.580Z,15.34
2018-10-12T05:18:52.216Z,15.19
2018-10-12T05:21:21.721Z,15.23
2018-10-12T05:23:51.378Z,15.14
2018-10-12T05:26:21.100Z,15.19
2018-10-12T05:28:50.614Z,15.26
2018-10-12T05:31:20.243Z,15.37
2018-10-12T05:33:49.700Z,15.47
2018-10-12T05:36:19.144Z,15.60
2018-10-12T05:38:48.664Z,15.66
2018-10-12T05:41:18.030Z,15.72
2018-10-12T05:43:47.874Z,15.71
2018-10-12T05:46:17.456Z,16.04
2018-10-12T05:48:57.738Z,16.02
2018-10-12T05:51:26.997Z,16.32
2018-10-12T05:53:56.321Z,16.35
2018-10-12T05:56:29.708Z,16.23
2018-10-12T05:58:59.186Z,16.17
2018-10-12T06:01:28.762Z,16.55
2018-10-12T06:03:58.401Z,16.63
2018-10-12T06:06:27.929Z,16.76
2018-10-12T06:08:57.348Z,16.85
2018-10-12T06:11:26.853Z,16.62
2018-10-12T06:13:56.245Z,16.67
2018-10-12T06:16:25.772Z,16.85
2018-10-12T06:18:55.289Z,17.06
2018-10-12T06:21:24.992Z,16.78
2018-10-12T06:23:54.463Z,16.97
2018-10-12T06:26:24.158Z,16.96
2018-10-12T06:28:53.499Z,17.22
2018-10-12T06:31:23.195Z,17.41
2018-10-12T06:33:52.796Z,17.61
2018-10-12T06:36:22.180Z,17.91
2018-10-12T06:38:51.676Z,17.50
2018-10-12T06:41:21.041Z,17.82
2018-10-12T06:43:50.391Z,17.68
2018-10-12T06:46:19.816Z,18.15
2018-10-12T06:48:49.445Z,17.87
2018-10-12T06:51:19.049Z,17.71
2018-10-12T06:53:48.494Z,18.09
2018-10-12T06:56:17.843Z,18.13
2018-10-12T06:58:47.132Z,18.07
2018-10-12T07:01:16.488Z,18.12
2018-10-12T07:03:46.317Z,18.40
2018-10-12T07:06:15.698Z,18.16
2018-10-12T07:08:45.395Z,18.54
2018-10-12T07:11:14.847Z,18.55
2018-10-12T07:13:44.418Z,18.72
2018-10-12T07:16:13.932Z,18.23
2018-10-12T07:18:43.574Z,18.47
2018-10-12T07:21:12.907Z,18.39
2018-10-12T07:23:42.341Z,18.49
2018-10-12T07:26:11.881Z,19.04
2018-10-12T07:28:41.247Z,18.97
2018-10-12T07:31:10.720Z,19.25
2018-10-12T07:33:40.439Z,19.60
2018-10-12T07:36:09.925Z,19.48
2018-10-12T07:38:39.522Z,19.57
2018-10-12T07:41:08.940Z,19.63
2018-10-12T07:43:38.246Z,19.78
2018-10-12T07:46:07.852Z,19.38
2018-10-12T07:48:37.541Z,19.64
2018-10-12T07:51:07.052Z,19.47
2018-10-12T07:53:36.452Z,19.34
2018-10-12T07:56:06.316Z,19.27
2018-10-12T07:58:35.976Z,19.61
2018-10-12T08:01:05.302Z,19.66
2018-10-12T08:03:35.136Z,19.54
2018-10-12T08:06:04.709Z,19.75
2018-10-12T08:08:34.723Z,19.88
2018-10-12T08:11:04.055Z,20.32
2018-10-12T08:13:33.489Z,20.31
2018-10-12T08:16:03.172Z,20.26
2018-10-12T08:18:32.789Z,19.92
2018-10-12T08:21:02.270Z,20.41
2018-10-12T08:23:32.120Z,20.40
2018-10-12T08:26:01.584Z,20.89
2018-10-12T08:28:30.823Z,20.43
2018-10-12T08:31:00.584Z,20.51
2018-10-12T08:33:30.165Z,20.23
2018-10-12T08:35:59.651Z,20.59
2018-10-12T08:38:29.009Z,20.67
2018-10-12T08:40:58.350Z,20.75
2018-10-12T08:43:27.817Z,21.57
2018-10-12T08:45:57.294Z,21.22
2018-10-12T08:48:26.868Z,20.98
2018-10-12T08:50:56.443Z,20.72
2018-10-12T08:53:25.750Z,20.82
2018-10-12T08:55:55.081Z,21.18
2018-10-12T08:58:24.510Z,20.17
2018-10-12T09:00:53.984Z,21.09
2018-10-12T09:03:23.401Z,20.71
2018-10-12T09:05:52.842Z,20.36
2018-10-12T09:08:22.220Z,20.74
2018-10-12T09:10:51.886Z,20.78
2018-10-12T09:13:21.282Z,20.56
2018-10-12T09:15:50.704Z,20.58
2018-10-12T09:18:20.332Z,21.27
2018-10-12T09:20:49.809Z,20.78
2018-10-12T09:23:19.167Z,20.91
2018-10-12T09:25:48.560Z,20.92
2018-10-12T09:28:18.054Z,20.44
2018-10-12T09:30:47.508Z,21.07
2018-10-12T09:33:16.926Z,21.29
2018-10-12T09:35:46.612Z,21.32
2018-10-12T09:38:16.042Z,20.72
2018-10-12T09:40:45.356Z,21.19
2018-10-12T09:43:15.244Z,20.63
2018-10-12T09:45:44.725Z,20.26
2018-10-12T09:48:14.214Z,20.76
2018-10-12T09:50:43.850Z,20.61
2018-10-12T09:53:13.080Z,20.95
2018-10-12T09:55:42.387Z,21.35
2018-10-12T09:58:11.931Z,21.23
2018-10-12T10:00:46.379Z,21.07
2018-10-12T10:03:20.708Z,21.25
2018-10-12T10:05:50.133Z,20.98
2018-10-12T10:08:19.899Z,21.27
2018-10-12T10:10:49.205Z,21.14
2018-10-12T10:13:18.647Z,21.54
2018-10-12T10:15:48.177Z,21.35
2018-10-12T10:18:17.729Z,21.70
2018-10-12T10:20:47.173Z,21.60
2018-10-12T10:23:16.700Z,21.43
2018-10-12T10:25:46.453Z,21.53
2018-10-12T10:28:15.994Z,21.36
2018-10-12T10:30:45.429Z,21.93
2018-10-12T10:33:14.850Z,21.47
2018-10-12T10:35:44.576Z,21.43
2018-10-12T10:38:13.976Z,21.51
2018-10-12T10:40:43.239Z,21.24
2018-10-12T10:43:12.948Z,21.17
2018-10-12T10:45:42.566Z,21.32
2018-10-12T10:48:12.008Z,21.33
2018-10-12T10:50:41.296Z,20.98
2018-10-12T10:53:11.090Z,21.13
2018-10-12T10:55:40.688Z,20.99
2018-10-12T10:58:10.200Z,20.67
2018-10-12T11:00:39.710Z,20.92
2018-10-12T11:03:09.132Z,20.51
2018-10-12T11:05:38.460Z,20.72
2018-10-12T11:08:07.849Z,21.05
2018-10-12T11:10:37.364Z,20.67
2018-10-12T11:13:07.166Z,21.02
2018-10-12T11:15:36.491Z,20.81
2018-10-12T11:18:05.864Z,21.03
2018-10-12T11:20:35.096Z,20.89
2018-10-12T11:23:04.662Z,20.98
2018-10-12T11:25:34.361Z,21.11
2018-10-12T11:28:03.738Z,21.30
2018-10-12T11:30:33.220Z,21.30
2018-10-12T11:33:02.846Z,21.83
2018-10-12T11:35:32.240Z,21.47
2018-10-12T11:38:01.788Z,21.65
2018-10-12T11:40:31.190Z,21.44
2018-10-12T11:43:11.530Z,21.89
2018-10-12T11:45:40.939Z,22.04
2018-10-12T11:48:10.341Z,22.12
2018-10-12T11:50:40.001Z,21.58
2018-10-12T11:53:09.527Z,21.78
2018-10-12T11:55:39.076Z,21.84
2018-10-12T11:58:08.727Z,21.64
2018-10-12T12:00:38.059Z,21.18
2018-10-12T12:03:07.479Z,21.38
2018-10-12T12:05:38.562Z,21.50
2018-10-12T12:08:08.340Z,21.55
2018-10-12T12:10:37.763Z,21.63
2018-10-12T12:13:08.374Z,21.48
2018-10-12T12:15:38.079Z,21.74
2018-10-12T12:18:07.827Z,21.56
2018-10-12T12:20:37.314Z,21.67
2018-10-12T12:23:06.496Z,21.59
2018-10-12T12:25:35.604Z,21.63
2018-10-12T12:28:04.716Z,22.00
2018-10-12T12:30:33.859Z,21.89
2018-10-12T12:33:02.943Z,21.69
2018-10-12T12:35:32.286Z,21.57
2018-10-12T12:38:01.317Z,21.52
2018-10-12T12:40:30.555Z,21.69
2018-10-12T12:42:59.722Z,21.62
2018-10-12T12:45:29.128Z,21.96
2018-10-12T12:47:58.635Z,21.83
2018-10-12T12:50:27.726Z,21.39
2018-10-12T12:52:57.013Z,21.60
2018-10-12T12:55:26.244Z,21.55
2018-10-12T12:57:55.599Z,21.46
2018-10-12T13:00:25.331Z,21.75
2018-10-12T13:02:54.864Z,21.60
2018-10-12T13:05:24.382Z,21.81
2018-10-12T13:07:53.529Z,21.90
2018-10-12T13:10:22.617Z,22.01
2018-10-12T13:12:51.788Z,21.54
2018-10-12T13:15:20.843Z,21.22
2018-10-12T13:17:49.856Z,21.44
2018-10-12T13:20:18.878Z,21.77
2018-10-12T13:22:48.000Z,21.84
2018-10-12T13:25:17.030Z,21.84
2018-10-12T13:27:46.494Z,21.71
2018-10-12T13:30:16.021Z,21.22
2018-10-12T13:32:45.463Z,21.63
2018-10-12T13:35:14.756Z,21.15
2018-10-12T13:37:43.920Z,21.12
2018-10-12T13:40:13.019Z,21.00
2018-10-12T13:42:42.090Z,20.96
2018-10-12T13:45:11.188Z,21.63
2018-10-12T13:47:40.210Z,21.51
2018-10-12T13:50:09.462Z,21.13
2018-10-12T13:52:38.599Z,21.29
2018-10-12T13:55:07.696Z,21.05
2018-10-12T13:57:36.657Z,21.33
2018-10-12T14:00:06.061Z,20.81
2018-10-12T14:02:35.184Z,20.98
2018-10-12T14:05:04.359Z,20.77
2018-10-12T14:07:33.408Z,20.85
2018-10-12T14:10:02.862Z,21.26
2018-10-12T14:12:32.188Z,21.04
2018-10-12T14:15:01.267Z,20.83
2018-10-12T14:17:30.386Z,20.73
2018-10-12T14:19:59.486Z,20.59
2018-10-12T14:22:28.496Z,20.52
2018-10-12T14:24:57.749Z,20.69
2018-10-12T14:27:26.834Z,20.24
2018-10-12T14:29:55.996Z,20.27
2018-10-12T14:32:25.454Z,20.43
2018-10-12T14:34:54.496Z,20.21
2018-10-12T14:37:23.606Z,20.38
2018-10-12T14:39:52.734Z,20.43
2018-10-12T14:42:21.814Z,20.20
2018-10-12T14:44:50.895Z,20.36
2018-10-12T14:47:19.952Z,20.11
2018-10-12T14:49:49.023Z,20.06
2018-10-12T14:52:18.492Z,19.90
2018-10-12T14:54:47.614Z,19.98
2018-10-12T14:57:18.568Z,19.78
2018-10-12T14:59:49.132Z,19.45
2018-10-12T15:02:19.042Z,19.58
2018-10-12T15:04:48.103Z,19.76
2018-10-12T15:07:17.170Z,19.75
2018-10-12T15:09:46.216Z,19.61
2018-10-12T15:12:15.795Z,19.73
2018-10-12T15:14:55.624Z,19.61
2018-10-12T15:17:24.732Z,19.40
2018-10-12T15:19:53.807Z,19.62
2018-10-12T15:22:22.895Z,19.64
2018-10-12T15:24:52.008Z,19.50
2018-10-12T15:27:21.090Z,19.70
2018-10-12T15:29:50.172Z,19.64
2018-10-12T15:32:19.349Z,19.60
2018-10-12T15:34:48.479Z,19.46
2018-10-12T15:37:17.861Z,19.46
2018-10-12T15:39:47.250Z,19.45
2018-10-12T15:42:16.364Z,19.19
2018-10-12T15:44:45.543Z,19.30
2018-10-12T15:47:14.665Z,19.10
2018-10-12T15:49:43.786Z,19.03
2018-10-12T15:52:12.839Z,18.92
2018-10-12T15:54:41.971Z,18.87
2018-10-12T15:57:11.248Z,18.93
2018-10-12T15:59:40.299Z,18.67
2018-10-12T16:02:10.073Z,18.81
2018-10-12T16:04:39.561Z,18.79
2018-10-12T16:07:08.650Z,18.70
2018-10-12T16:09:39.468Z,18.64
2018-10-12T16:12:08.555Z,18.67
2018-10-12T16:14:37.735Z,18.54
2018-10-12T16:17:06.783Z,18.66
2018-10-12T16:19:35.919Z,18.58
2018-10-12T16:22:05.068Z,18.59
2018-10-12T16:24:34.180Z,18.61
2018-10-12T16:27:03.293Z,18.50
2018-10-12T16:29:32.440Z,18.40
2018-10-12T16:32:01.508Z,18.51
2018-10-12T16:34:30.615Z,18.38
2018-10-12T16:36:59.821Z,18.40
2018-10-12T16:39:28.907Z,18.51
2018-10-12T16:41:58.128Z,18.41
2018-10-12T16:44:28.548Z,18.36
2018-10-12T16:46:58.712Z,18.25
2018-10-12T16:49:29.907Z,18.24
2018-10-12T16:52:01.004Z,18.41
2018-10-12T16:54:31.328Z,18.40
2018-10-12T16:57:00.823Z,18.55
2018-10-12T16:59:30.176Z,18.45
2018-10-12T17:01:59.742Z,18.17
2018-10-12T17:04:28.976Z,18.29
2018-10-12T17:06:58.329Z,18.50
2018-10-12T17:09:27.761Z,18.54
2018-10-12T17:11:58.794Z,18.32
2018-10-12T17:14:28.208Z,18.34
2018-10-12T17:16:57.802Z,18.28
2018-10-12T17:19:27.441Z,18.45
2018-10-12T17:21:56.616Z,18.27
2018-10-12T17:24:26.105Z,18.41
2018-10-12T17:26:55.458Z,18.58
2018-10-12T17:29:25.397Z,18.55
2018-10-12T17:31:54.405Z,18.47
2018-10-12T17:34:23.908Z,18.21
2018-10-12T17:36:53.169Z,18.41
2018-10-12T17:39:22.772Z,18.32
2018-10-12T17:41:51.903Z,18.51
2018-10-12T17:44:20.926Z,18.26
2018-10-12T17:46:50.014Z,18.19
2018-10-12T17:49:19.141Z,18.30
2018-10-12T17:51:48.271Z,18.27
2018-10-12T17:54:17.474Z,18.21
2018-10-12T17:56:46.644Z,18.19
2018-10-12T17:59:15.684Z,18.29
2018-10-12T18:01:44.839Z,18.14
2018-10-12T18:04:13.920Z,17.99
2018-10-12T18:06:42.974Z,17.86
2018-10-12T18:09:12.107Z,17.92
2018-10-12T18:11:41.810Z,17.84
2018-10-12T18:14:10.932Z,18.11
2018-10-12T18:16:40.274Z,18.21
2018-10-12T18:19:09.429Z,18.19
2018-10-12T18:21:38.876Z,17.99
2018-10-12T18:24:08.021Z,18.10
2018-10-12T18:26:37.566Z,18.26
2018-10-12T18:29:06.672Z,18.08
2018-10-12T18:31:35.844Z,17.94
2018-10-12T18:34:05.065Z,17.71
2018-10-12T18:36:34.707Z,17.88
2018-10-12T18:39:04.864Z,17.78
2018-10-12T18:41:33.927Z,17.75
2018-10-12T18:44:03.052Z,17.95
2018-10-12T18:46:32.161Z,17.71
2018-10-12T18:49:01.341Z,17.71
2018-10-12T18:51:30.455Z,17.70
2018-10-12T18:54:00.016Z,17.66
2018-10-12T18:56:29.113Z,17.62
2018-10-12T18:58:58.212Z,17.85
2018-10-12T19:01:27.312Z,17.50
2018-10-12T19:03:56.678Z,17.82
2018-10-12T19:06:25.790Z,17.81
2018-10-12T19:08:55.018Z,17.93
2018-10-12T19:11:24.100Z,17.85
2018-10-12T19:13:53.164Z,17.87
2018-10-12T19:16:22.304Z,17.77
2018-10-12T19:18:51.400Z,17.61
2018-10-12T19:21:20.537Z,17.55
2018-10-12T19:23:49.795Z,17.52
2018-10-12T19:26:18.875Z,17.48
2018-10-12T19:28:48.282Z,17.50
2018-10-12T19:31:17.874Z,17.49
2018-10-12T19:33:47.051Z,17.54
2018-10-12T19:36:16.036Z,17.53
2018-10-12T19:38:45.097Z,17.66
2018-10-12T19:41:14.219Z,17.41
2018-10-12T19:43:43.352Z,17.06
2018-10-12T19:46:12.451Z,17.03
2018-10-12T19:48:41.611Z,17.26
2018-10-12T19:51:10.693Z,17.37
2018-10-12T19:53:39.804Z,17.38
2018-10-12T19:56:10.397Z,17.25
2018-10-12T19:58:39.760Z,17.08
2018-10-12T20:01:09.185Z,17.20
2018-10-12T20:03:38.489Z,17.22
2018-10-12T20:06:07.559Z,17.11
2018-10-12T20:08:36.578Z,17.18
2018-10-12T20:11:06.030Z,17.13
2018-10-12T20:13:35.320Z,17.02
2018-10-12T20:16:04.765Z,17.07
2018-10-12T20:18:33.978Z,17.06
2018-10-12T20:21:03.071Z,17.01
2018-10-12T20:23:32.443Z,17.13
2018-10-12T20:26:01.892Z,17.16
2018-10-12T20:28:30.966Z,16.93
2018-10-12T20:31:00.076Z,16.95
2018-10-12T20:33:29.228Z,16.98
2018-10-12T20:35:58.252Z,16.90
2018-10-12T20:38:27.953Z,17.03
2018-10-12T20:40:57.930Z,16.99
2018-10-12T20:43:26.985Z,16.62
2018-10-12T20:45:56.522Z,16.71
2018-10-12T20:48:25.656Z,16.55
2018-10-12T20:50:54.844Z,16.66
2018-10-12T20:53:23.953Z,16.72
2018-10-12T20:55:53.380Z,16.71
2018-10-12T20:58:22.522Z,16.72
2018-10-12T21:00:51.620Z,16.60
2018-10-12T21:03:21.047Z,16.76
2018-10-12T21:05:50.567Z,16.49
2018-10-12T21:08:19.719Z,16.40
2018-10-12T21:10:49.215Z,16.33
2018-10-12T21:13:18.331Z,16.37
2018-10-12T21:15:47.679Z,16.39
2018-10-12T21:18:17.236Z,16.44
2018-10-12T21:20:46.319Z,16.22
2018-10-12T21:23:15.393Z,16.08
2018-10-12T21:25:44.507Z,16.40
2018-10-12T21:28:13.625Z,16.26
2018-10-12T21:30:42.833Z,16.33
2018-10-12T21:33:12.232Z,16.50
2018-10-12T21:35:41.327Z,16.21
2018-10-12T21:38:10.486Z,16.32
2018-10-12T21:40:39.608Z,16.21
2018-10-12T21:43:09.018Z,16.26
2018-10-12T21:45:38.149Z,16.23
2018-10-12T21:48:07.535Z,16.16
2018-10-12T21:50:37.035Z,16.12
2018-10-12T21:53:06.403Z,16.22
2018-10-12T21:55:35.841Z,16.22
2018-10-12T21:58:04.940Z,16.33
2018-10-12T22:00:35.482Z,16.47
2018-10-12T22:03:04.942Z,16.30
2018-10-12T22:05:34.329Z,16.25
2018-10-12T22:08:04.505Z,16.05
2018-10-12T22:10:33.634Z,16.16
2018-10-12T22:13:03.146Z,16.21
2018-10-12T22:15:32.455Z,16.31
2018-10-12T22:18:01.860Z,16.32
2018-10-12T22:20:31.184Z,16.14
2018-10-12T22:23:00.261Z,16.29
2018-10-12T22:25:29.641Z,16.09
2018-10-12T22:27:58.949Z,15.94
2018-10-12T22:30:28.303Z,16.02
2018-10-12T22:32:57.958Z,16.02
2018-10-12T22:35:27.441Z,15.99
2018-10-12T22:37:56.907Z,16.25
2018-10-12T22:40:26.313Z,16.23
2018-10-12T22:42:56.410Z,16.22
2018-10-12T22:45:26.324Z,16.16
2018-10-12T22:47:55.637Z,15.94
2018-10-12T22:50:24.994Z,15.88
2018-10-12T22:52:54.386Z,16.03
2018-10-12T22:55:23.968Z,16.14
2018-10-12T22:57:58.521Z,16.10
2018-10-12T23:00:27.949Z,16.14
2018-10-12T23:02:57.367Z,15.94
2018-10-12T23:05:26.863Z,16.04
2018-10-12T23:07:56.327Z,16.07
2018-10-12T23:10:26.244Z,16.08
2018-10-12T23:12:56.301Z,16.04
2018-10-12T23:15:25.596Z,16.26
2018-10-12T23:17:54.757Z,16.03
2018-10-12T23:20:24.172Z,16.21
2018-10-12T23:22:53.624Z,16.28
2018-10-12T23:25:22.797Z,16.05
2018-10-12T23:27:51.892Z,16.12
2018-10-12T23:30:21.206Z,16.08
2018-10-12T23:32:50.698Z,16.09
2018-10-12T23:35:20.050Z,16.03
2018-10-12T23:37:49.450Z,16.08
2018-10-12T23:40:18.753Z,15.96
2018-10-12T23:42:47.889Z,16.10
2018-10-12T23:45:17.228Z,15.97
2018-10-12T23:47:46.284Z,16.03
2018-10-12T23:50:15.416Z,16.13
2018-10-12T23:52:44.505Z,16.09
2018-10-12T23:55:13.881Z,16.02
2018-10-12T23:57:43.021Z,16.04
